createdAt,value
2018-09-19T00:01:57.037Z,95.80
2018-09-19T00:06:52.310Z,95.90
2018-09-19T00:11:47.528Z,96.50
2018-09-19T00:14:15.154Z,97.00
2018-09-19T00:16:42.871Z,97.10
2018-09-19T00:21:38.030Z,97.00
2018-09-19T00:24:05.694Z,97.00
2018-09-19T00:26:33.362Z,97.30
2018-09-19T00:29:01.039Z,97.00
2018-09-19T00:31:28.748Z,96.90
2018-09-19T00:33:56.438Z,97.10
2018-09-19T00:36:24.360Z,96.80
2018-09-19T00:38:52.330Z,96.70
2018-09-19T00:41:19.983Z,96.70
2018-09-19T00:43:47.883Z,96.80
2018-09-19T00:46:15.484Z,97.00
2018-09-19T00:48:43.133Z,96.80
2018-09-19T00:51:10.728Z,96.80
2018-09-19T00:53:38.341Z,96.70
2018-09-19T00:56:05.956Z,96.60
2018-09-19T00:58:33.573Z,96.60
2018-09-19T01:01:01.271Z,96.60
2018-09-19T01:03:28.848Z,96.70
2018-09-19T01:05:56.475Z,96.80
2018-09-19T01:08:24.102Z,96.80
2018-09-19T01:10:51.730Z,96.80
2018-09-19T01:13:19.334Z,96.80
2018-09-19T01:15:47.014Z,96.60
2018-09-19T01:18:14.610Z,96.60
2018-09-19T01:20:42.250Z,96.50
2018-09-19T01:25:37.427Z,96.60
2018-09-19T01:28:05.054Z,96.80
2018-09-19T01:30:32.715Z,96.70
2018-09-19T01:33:00.359Z,97.00
2018-09-19T01:35:28.046Z,97.40
2018-09-19T01:40:23.251Z,96.90
2018-09-19T01:42:50.855Z,96.50
2018-09-19T01:45:18.493Z,96.60
2018-09-19T01:47:46.141Z,96.20
2018-09-19T01:50:13.847Z,96.10
2018-09-19T01:52:41.477Z,96.30
2018-09-19T01:55:09.139Z,96.00
2018-09-19T01:57:36.821Z,96.00
2018-09-19T02:00:04.545Z,95.60
2018-09-19T02:02:32.220Z,95.80
2018-09-19T02:04:59.815Z,95.50
2018-09-19T02:07:27.426Z,95.70
2018-09-19T02:09:55.060Z,95.20
2018-09-19T02:12:23.360Z,95.50
2018-09-19T02:14:51.011Z,95.40
2018-09-19T02:17:18.685Z,99.90
2018-09-19T02:19:46.363Z,99.90
2018-09-19T02:22:13.995Z,98.60
2018-09-19T02:24:41.631Z,98.40
2018-09-19T02:27:09.285Z,95.90
2018-09-19T02:29:36.957Z,97.00
2018-09-19T02:32:04.763Z,96.60
2018-09-19T02:34:32.391Z,95.80
2018-09-19T02:37:00.019Z,95.50
2018-09-19T02:39:27.660Z,95.10
2018-09-19T02:41:55.243Z,95.20
2018-09-19T02:44:23.741Z,95.50
2018-09-19T02:46:51.352Z,94.90
2018-09-19T02:49:21.450Z,95.10
2018-09-19T02:51:49.345Z,95.60
2018-09-19T02:54:16.946Z,94.90
2018-09-19T02:56:45.517Z,94.50
2018-09-19T02:59:13.245Z,95.10
2018-09-19T03:01:40.926Z,94.80
2018-09-19T03:04:08.530Z,95.50
2018-09-19T03:06:36.162Z,95.60
2018-09-19T03:09:05.751Z,94.50
2018-09-19T03:11:33.396Z,94.80
2018-09-19T03:14:01.031Z,94.20
2018-09-19T03:16:28.712Z,94.70
2018-09-19T03:18:56.331Z,94.30
2018-09-19T03:21:24.042Z,94.00
2018-09-19T03:23:51.657Z,94.10
2018-09-19T03:26:19.286Z,93.80
2018-09-19T03:28:46.913Z,94.00
2018-09-19T03:31:14.543Z,93.50
2018-09-19T03:33:42.180Z,93.40
2018-09-19T03:36:09.817Z,93.50
2018-09-19T03:38:37.443Z,93.60
2018-09-19T03:43:32.593Z,93.50
2018-09-19T03:46:00.227Z,92.90
2018-09-19T03:48:27.850Z,93.20
2018-09-19T03:53:22.995Z,93.20
2018-09-19T03:58:18.194Z,93.60
2018-09-19T04:00:45.781Z,93.60
2018-09-19T04:03:13.404Z,93.70
2018-09-19T04:08:08.576Z,93.60
2018-09-19T04:10:36.226Z,94.00
2018-09-19T04:13:03.862Z,93.90
2018-09-19T04:15:31.509Z,93.80
2018-09-19T04:17:59.160Z,93.90
2018-09-19T04:20:26.754Z,93.90
2018-09-19T04:22:54.376Z,93.70
2018-09-19T04:30:17.027Z,93.70
2018-09-19T04:32:44.656Z,94.20
2018-09-19T04:37:39.902Z,96.50
2018-09-19T04:40:07.613Z,98.50
2018-09-19T04:42:35.246Z,99.80
2018-09-19T04:45:03.089Z,97.70
2018-09-19T04:47:30.617Z,96.50
2018-09-19T04:49:58.262Z,96.10
2018-09-19T04:55:02.336Z,95.80
2018-09-19T04:57:30.051Z,96.40
2018-09-19T05:04:52.835Z,97.10
2018-09-19T05:07:20.511Z,96.70
2018-09-19T05:09:48.122Z,96.50
2018-09-19T05:12:15.817Z,96.90
2018-09-19T05:14:43.433Z,97.70
2018-09-19T05:31:56.413Z,97.00
2018-09-19T05:34:24.068Z,94.60
2018-09-19T05:36:51.697Z,94.40
2018-09-19T05:44:14.417Z,89.80
2018-09-19T05:46:42.047Z,90.00
2018-09-19T05:49:09.754Z,86.30
2018-09-19T05:51:37.396Z,81.40
2018-09-19T05:54:05.095Z,76.10
2018-09-19T05:56:32.719Z,71.60
2018-09-19T05:59:00.435Z,70.00
2018-09-19T06:01:28.079Z,66.50
2018-09-19T06:03:55.695Z,62.00
2018-09-19T06:06:23.350Z,59.10
2018-09-19T06:08:51.016Z,56.90
2018-09-19T06:11:18.615Z,55.80
2018-09-19T06:13:46.248Z,57.00
2018-09-19T06:16:13.889Z,55.50
2018-09-19T06:18:41.558Z,53.50
2018-09-19T06:21:09.170Z,51.60
2018-09-19T06:23:36.787Z,48.40
2018-09-19T06:26:04.402Z,48.00
2018-09-19T06:28:32.016Z,46.00
2018-09-19T06:30:59.610Z,44.70
2018-09-19T06:33:27.327Z,44.00
2018-09-19T06:35:54.918Z,44.80
2018-09-19T06:38:22.533Z,46.70
2018-09-19T06:40:50.239Z,50.60
2018-09-19T06:43:17.758Z,53.30
2018-09-19T06:45:45.459Z,57.40
2018-09-19T06:48:13.010Z,57.60
2018-09-19T06:53:08.190Z,58.80
2018-09-19T06:55:35.786Z,61.10
2018-09-19T06:58:03.383Z,62.30
2018-09-19T07:00:31.016Z,62.60
2018-09-19T07:02:58.638Z,62.80
2018-09-19T07:05:26.260Z,64.30
2018-09-19T07:07:53.858Z,65.10
2018-09-19T07:12:49.034Z,64.20
2018-09-19T07:15:16.655Z,55.60
2018-09-19T07:17:44.303Z,49.40
2018-09-19T07:20:11.899Z,45.50
2018-09-19T07:22:39.586Z,43.50
2018-09-19T07:25:07.260Z,40.90
2018-09-19T07:27:34.862Z,39.60
2018-09-19T07:30:02.519Z,38.80
2018-09-19T07:32:30.149Z,38.60
2018-09-19T07:34:57.796Z,38.20
2018-09-19T07:37:25.457Z,36.40
2018-09-19T07:39:53.098Z,34.80
2018-09-19T07:42:20.791Z,33.40
2018-09-19T07:44:48.382Z,36.20
2018-09-19T07:47:15.970Z,35.00
2018-09-19T07:49:43.588Z,33.80
2018-09-19T07:52:11.198Z,34.70
2018-09-19T07:54:38.952Z,34.20
2018-09-19T07:57:06.678Z,32.50
2018-09-19T07:59:34.382Z,33.20
2018-09-19T08:02:02.196Z,36.30
2018-09-19T08:04:29.830Z,38.10
2018-09-19T08:06:57.459Z,40.00
2018-09-19T08:09:25.181Z,41.30
2018-09-19T08:11:52.821Z,41.90
2018-09-19T08:14:20.456Z,42.30
2018-09-19T08:16:48.119Z,44.10
2018-09-19T08:19:15.778Z,44.80
2018-09-19T08:21:43.435Z,44.10
2018-09-19T08:24:11.144Z,46.50
2018-09-19T08:26:38.776Z,46.30
2018-09-19T08:29:06.510Z,46.70
2018-09-19T08:31:34.133Z,49.60
2018-09-19T08:34:01.799Z,53.10
2018-09-19T08:36:29.478Z,52.10
2018-09-19T08:38:57.230Z,55.60
2018-09-19T08:41:24.896Z,58.90
2018-09-19T08:43:52.936Z,54.50
2018-09-19T08:46:20.624Z,76.70
2018-09-19T08:48:48.290Z,71.30
2018-09-19T08:51:15.931Z,92.50
2018-09-19T08:53:43.570Z,66.50
2018-09-19T08:56:11.211Z,54.50
2018-09-19T08:58:38.881Z,56.10
2018-09-19T09:01:06.580Z,56.50
2018-09-19T09:03:34.223Z,55.90
2018-09-19T09:06:01.867Z,55.20
2018-09-19T09:08:29.497Z,59.70
2018-09-19T09:10:57.260Z,58.80
2018-09-19T09:13:24.873Z,56.90
2018-09-19T09:15:52.478Z,55.10
2018-09-19T09:18:20.132Z,56.30
2018-09-19T09:20:47.760Z,58.70
2018-09-19T09:23:15.376Z,58.20
2018-09-19T09:25:43.184Z,59.30
2018-09-19T09:28:11.007Z,55.20
2018-09-19T09:30:38.621Z,54.90
2018-09-19T09:35:34.232Z,51.90
2018-09-19T09:40:29.573Z,54.30
2018-09-19T09:42:57.192Z,55.10
2018-09-19T09:47:52.436Z,56.00
2018-09-19T09:50:20.112Z,53.10
2018-09-19T09:52:47.675Z,54.80
2018-09-19T09:55:15.550Z,54.50
2018-09-19T09:57:43.308Z,56.10
2018-09-19T10:00:10.963Z,54.20
2018-09-19T10:02:38.582Z,54.70
2018-09-19T10:05:06.271Z,54.20
2018-09-19T10:07:33.902Z,52.80
2018-09-19T10:10:01.602Z,50.70
2018-09-19T10:12:29.261Z,51.20
2018-09-19T10:14:56.889Z,53.40
2018-09-19T10:17:24.518Z,57.50
2018-09-19T10:19:52.223Z,58.80
2018-09-19T10:22:19.873Z,54.80
2018-09-19T10:24:47.493Z,56.70
2018-09-19T10:27:15.134Z,55.50
2018-09-19T10:29:42.853Z,53.50
2018-09-19T10:34:38.014Z,52.70
2018-09-19T10:37:05.647Z,53.10
2018-09-19T10:39:33.265Z,54.50
2018-09-19T10:44:28.499Z,54.70
2018-09-19T10:49:23.656Z,58.00
2018-09-19T10:51:51.548Z,56.80
2018-09-19T10:54:19.317Z,53.80
2018-09-19T10:56:47.025Z,54.50
2018-09-19T10:59:14.662Z,55.20
2018-09-19T11:01:42.370Z,57.30
2018-09-19T11:04:10.487Z,54.30
2018-09-19T11:06:38.211Z,54.80
2018-09-19T11:11:34.882Z,55.30
2018-09-19T11:14:02.818Z,55.90
2018-09-19T11:16:30.937Z,56.50
2018-09-19T11:18:58.805Z,55.30
2018-09-19T11:21:26.467Z,56.10
2018-09-19T11:23:54.159Z,58.30
2018-09-19T11:26:21.838Z,57.30
2018-09-19T11:28:49.414Z,55.60
2018-09-19T11:31:16.997Z,55.70
2018-09-19T11:33:44.652Z,53.70
2018-09-19T11:36:13.090Z,54.00
2018-09-19T11:38:40.719Z,55.10
2018-09-19T11:41:08.822Z,54.40
2018-09-19T11:43:36.615Z,54.80
2018-09-19T11:46:04.243Z,56.60
2018-09-19T11:48:31.906Z,57.00
2018-09-19T11:50:59.744Z,57.30
2018-09-19T11:53:28.486Z,55.60
2018-09-19T11:55:57.527Z,56.70
2018-09-19T11:58:25.398Z,57.00
2018-09-19T12:00:53.260Z,55.90
2018-09-19T12:03:20.983Z,56.50
2018-09-19T12:05:48.708Z,57.80
2018-09-19T12:08:16.519Z,57.40
2018-09-19T12:10:44.594Z,56.80
2018-09-19T12:13:12.422Z,57.70
2018-09-19T12:15:40.323Z,57.30
2018-09-19T12:18:08.247Z,57.30
2018-09-19T12:20:36.178Z,56.80
2018-09-19T12:23:03.923Z,56.10
2018-09-19T12:25:31.747Z,56.70
2018-09-19T12:27:59.451Z,56.10
2018-09-19T12:30:27.145Z,56.30
2018-09-19T12:32:54.899Z,56.40
2018-09-19T12:35:22.544Z,56.70
2018-09-19T12:37:50.219Z,57.00
2018-09-19T12:40:17.924Z,55.50
2018-09-19T12:42:45.541Z,57.00
2018-09-19T12:45:13.239Z,55.40
2018-09-19T12:47:40.933Z,54.90
2018-09-19T12:50:08.569Z,55.10
2018-09-19T12:52:36.197Z,55.00
2018-09-19T12:55:03.868Z,54.00
2018-09-19T12:57:31.539Z,53.70
2018-09-19T12:59:59.171Z,54.50
2018-09-19T13:02:26.823Z,54.80
2018-09-19T13:04:54.466Z,54.60
2018-09-19T13:07:22.108Z,54.80
2018-09-19T13:09:49.746Z,55.00
2018-09-19T13:12:17.406Z,55.10
2018-09-19T13:14:45.081Z,54.50
2018-09-19T13:17:12.775Z,52.80
2018-09-19T13:19:40.423Z,52.80
2018-09-19T13:22:08.226Z,52.70
2018-09-19T13:24:35.967Z,53.70
2018-09-19T13:27:03.741Z,53.20
2018-09-19T13:29:31.370Z,53.40
2018-09-19T13:31:59.147Z,53.40
2018-09-19T13:34:26.800Z,53.00
2018-09-19T13:36:54.422Z,52.40
2018-09-19T13:39:22.347Z,52.20
2018-09-19T13:41:50.103Z,53.00
2018-09-19T13:44:17.773Z,51.80
2018-09-19T13:46:45.474Z,52.40
2018-09-19T13:50:03.575Z,52.80
2018-09-19T13:52:31.255Z,52.50
2018-09-19T13:54:58.875Z,52.70
2018-09-19T13:57:26.510Z,50.80
2018-09-19T13:59:54.171Z,51.50
2018-09-19T14:02:21.846Z,52.10
2018-09-19T14:04:49.476Z,52.10
2018-09-19T14:07:17.124Z,51.40
2018-09-19T14:09:44.741Z,52.60
2018-09-19T14:12:12.437Z,52.60
2018-09-19T14:14:40.059Z,53.00
2018-09-19T14:17:07.705Z,51.70
2018-09-19T14:19:35.370Z,52.10
2018-09-19T14:22:03.027Z,52.60
2018-09-19T14:24:30.643Z,52.10
2018-09-19T14:26:58.346Z,51.40
2018-09-19T14:29:26.071Z,51.90
2018-09-19T14:31:53.759Z,52.30
2018-09-19T14:34:21.471Z,50.50
2018-09-19T14:36:49.091Z,50.80
2018-09-19T14:39:16.754Z,50.80
2018-09-19T14:41:44.411Z,50.70
2018-09-19T14:44:12.046Z,51.60
2018-09-19T14:46:39.700Z,51.90
2018-09-19T14:49:07.327Z,50.30
2018-09-19T14:51:35.076Z,50.70
2018-09-19T14:54:02.724Z,52.20
2018-09-19T14:56:30.350Z,50.80
2018-09-19T14:58:57.991Z,51.70
2018-09-19T15:01:25.611Z,51.10
2018-09-19T15:03:53.220Z,49.00
2018-09-19T15:06:20.854Z,49.30
2018-09-19T15:08:48.479Z,50.20
2018-09-19T15:13:43.689Z,50.90
2018-09-19T15:18:38.851Z,51.10
2018-09-19T15:21:06.518Z,52.10
2018-09-19T15:28:29.275Z,52.30
2018-09-19T15:30:56.867Z,52.60
2018-09-19T15:35:52.050Z,52.10
2018-09-19T15:38:19.809Z,51.90
2018-09-19T15:40:47.427Z,52.50
2018-09-19T15:43:15.067Z,52.50
2018-09-19T15:45:42.706Z,52.40
2018-09-19T15:48:10.369Z,53.00
2018-09-19T15:50:38.185Z,52.90
2018-09-19T15:53:05.862Z,53.30
2018-09-19T15:55:33.588Z,53.10
2018-09-19T15:58:01.294Z,52.90
2018-09-19T16:00:29.000Z,52.80
2018-09-19T16:02:56.635Z,53.40
2018-09-19T16:05:24.308Z,53.80
2018-09-19T16:07:51.950Z,54.20
2018-09-19T16:10:19.686Z,54.40
2018-09-19T16:12:47.323Z,54.50
2018-09-19T16:20:10.168Z,54.90
2018-09-19T16:22:37.911Z,55.60
2018-09-19T16:25:05.696Z,55.50
2018-09-19T16:27:33.446Z,55.20
2018-09-19T16:30:01.051Z,55.80
2018-09-19T16:32:28.666Z,56.10
2018-09-19T16:34:56.283Z,56.50
2018-09-19T16:39:51.445Z,57.70
2018-09-19T16:44:46.700Z,59.70
2018-09-19T16:52:09.460Z,59.90
2018-09-19T16:54:37.107Z,60.60
2018-09-19T16:57:04.875Z,60.80
2018-09-19T16:59:32.510Z,61.70
2018-09-19T17:04:27.816Z,63.10
2018-09-19T17:06:55.469Z,63.50
2018-09-19T17:09:23.106Z,64.50
2018-09-19T17:11:50.706Z,64.40
2018-09-19T17:16:45.890Z,66.30
2018-09-19T17:19:13.502Z,67.10
2018-09-19T17:21:41.103Z,67.80
2018-09-19T17:24:08.728Z,68.60
2018-09-19T17:26:36.363Z,68.70
2018-09-19T17:29:04.083Z,69.30
2018-09-19T17:31:31.729Z,69.30
2018-09-19T17:33:59.515Z,69.30
2018-09-19T17:36:27.119Z,69.80
2018-09-19T17:38:54.763Z,71.60
2018-09-19T17:43:49.899Z,71.60
2018-09-19T17:46:17.831Z,72.60
2018-09-19T17:48:45.684Z,72.40
2018-09-19T17:53:41.370Z,72.80
2018-09-19T18:03:33.061Z,75.50
2018-09-19T18:06:00.782Z,77.10
2018-09-19T18:10:55.916Z,78.10
2018-09-19T18:13:23.512Z,77.80
2018-09-19T18:18:18.712Z,78.30
2018-09-19T18:20:46.376Z,78.50
2018-09-19T18:23:13.999Z,79.80
2018-09-19T18:25:41.614Z,80.70
2018-09-19T18:28:09.230Z,81.70
2018-09-19T18:30:36.963Z,81.40
2018-09-19T18:33:04.622Z,82.10
2018-09-19T18:40:27.439Z,84.20
2018-09-19T18:42:55.032Z,85.10
2018-09-19T18:45:22.632Z,85.20
2018-09-19T18:50:17.737Z,85.90
2018-09-19T18:57:40.394Z,86.80
2018-09-19T19:00:08.324Z,87.70
2018-09-19T19:05:03.561Z,88.40
2018-09-19T19:14:53.778Z,90.50
2018-09-19T19:17:21.489Z,90.80
2018-09-19T19:22:16.645Z,90.60
2018-09-19T19:24:44.358Z,90.60
2018-09-19T19:27:12.219Z,91.20
2018-09-19T19:34:35.210Z,91.70
2018-09-19T19:41:58.131Z,92.00
2018-09-19T19:44:25.774Z,92.20
2018-09-19T19:46:53.452Z,92.10
2018-09-19T19:54:16.135Z,92.50
2018-09-19T19:56:43.763Z,92.60
2018-09-19T19:59:11.465Z,92.70
2018-09-19T20:04:06.742Z,92.80
2018-09-19T20:06:34.430Z,92.80
2018-09-19T20:09:02.106Z,92.60
2018-09-19T20:11:29.754Z,92.80
2018-09-19T20:13:57.458Z,92.90
2018-09-19T20:16:25.414Z,92.80
2018-09-19T20:23:48.326Z,93.00
2018-09-19T20:26:15.993Z,93.10
2018-09-19T20:31:11.199Z,93.90
2018-09-19T20:33:39.068Z,94.10
2018-09-19T20:36:06.741Z,94.00
2018-09-19T20:41:02.054Z,93.70
2018-09-19T20:45:57.575Z,93.60
2018-09-19T20:50:52.940Z,93.90
2018-09-19T20:53:20.624Z,93.90
2018-09-19T21:05:39.290Z,93.90
2018-09-19T21:15:30.146Z,94.80
2018-09-19T21:17:58.178Z,94.90
2018-09-19T21:22:53.412Z,94.10
2018-09-19T21:30:16.211Z,94.60
2018-09-19T21:35:11.532Z,94.00
2018-09-19T21:42:34.298Z,94.10
2018-09-19T21:49:57.218Z,93.80
2018-09-19T21:59:48.371Z,94.00
2018-09-19T22:04:46.159Z,94.30
2018-09-19T22:09:41.601Z,94.40
2018-09-19T22:12:10.172Z,94.10
2018-09-19T22:17:05.628Z,94.20
2018-09-19T22:22:00.923Z,94.50
2018-09-19T22:26:56.125Z,94.90
2018-09-19T22:29:23.763Z,95.20
2018-09-19T22:31:51.406Z,95.20
2018-09-19T22:46:38.105Z,96.30
2018-09-19T22:49:06.076Z,95.50
2018-09-19T22:54:01.346Z,95.90
2018-09-19T22:56:28.974Z,95.30
2018-09-19T22:58:56.643Z,95.00
2018-09-19T23:03:51.953Z,95.60
2018-09-19T23:06:19.613Z,95.20
2018-09-19T23:13:42.327Z,95.00
2018-09-19T23:16:09.960Z,95.20
2018-09-19T23:18:37.620Z,95.30
2018-09-19T23:21:05.368Z,95.50
2018-09-19T23:23:33.052Z,95.60
2018-09-19T23:26:00.718Z,95.60
2018-09-19T23:30:55.931Z,95.70
2018-09-19T23:33:23.587Z,95.80
2018-09-19T23:35:51.214Z,95.60
2018-09-19T23:40:46.407Z,95.70
2018-09-19T23:50:36.650Z,95.40
2018-09-19T23:57:59.689Z,95.30
